Stations météo

réclame
Mon MeteoGroup
Malaga,Cmt, Espagne (8481): Température de l'air & dewpoint: 09.08.2018 01:00:00 - 15.08.2018 01:00:00 (CEST)Malaga,Cmt, Espagne (8481): Vitesse du vent & gusts: 09.08.2018 01:00:00 - 15.08.2018 01:00:00 (CEST)Malaga,Cmt, Espagne (8481): Direction du vent: 09.08.2018 01:00:00 - 15.08.2018 01:00:00 (CEST)Malaga,Cmt, Espagne (8481): reduced air pressure: 09.08.2018 01:00:00 - 15.08.2018 01:00:00 (CEST)Malaga,Cmt, Espagne (8481): Quantités de précipitations: 09.08.2018 01:00:00 - 15.08.2018 01:00:00 (CEST)
Date & Time tt [°C] td [°C] ff [km/h] ff [knt] fx [km/h] fx [knt] dd ppp [hPa] rr [mm]
15.08.2018 01:00:00 - - - - - - - - -
15.08.2018 00:00:00 25,5 21,8 4 2 8 5 SE 1015,7 0,0
14.08.2018 23:00:00 26,0 21,6 4 2 18 10 S 1015,1 0,0
14.08.2018 22:00:00 26,6 20,7 10 5 21 11 ESE 1014,2 0,0
14.08.2018 21:00:00 27,3 19,3 12 7 24 13 E 1013,8 0,0
14.08.2018 20:00:00 29,3 17,8 14 7 23 12 ESE 1013,6 -
14.08.2018 19:00:00 30,5 16,9 14 8 28 15 ESE 1013,9 0,0
14.08.2018 18:00:00 30,3 16,7 19 11 27 15 ESE 1014,1 0,0
14.08.2018 17:00:00 30,8 18,8 14 8 28 15 ESE 1014,1 0,0
14.08.2018 16:00:00 30,6 17,7 17 9 24 13 ESE 1014,5 0,0
14.08.2018 15:00:00 31,2 17,1 15 8 24 13 E 1014,3 0,0
14.08.2018 14:00:00 32,4 15,9 14 8 23 13 E 1014,6 -
14.08.2018 13:00:00 36,5 15,1 15 8 28 15 W 1013,9 0,0
14.08.2018 12:00:00 33,7 14,2 18 10 27 15 W 1014,1 0,0
14.08.2018 11:00:00 30,9 13,3 11 6 26 14 W 1014,0 0,0
14.08.2018 10:00:00 28,1 12,0 14 8 22 12 W 1013,8 0,0
14.08.2018 09:00:00 26,9 11,0 13 7 24 13 WNW 1013,7 0,0
14.08.2018 08:00:00 26,9 11,0 16 9 26 14 WNW 1013,2 -
14.08.2018 07:00:00 26,4 10,9 7 4 21 12 W 1013,1 0,0
14.08.2018 06:00:00 28,2 11,3 10 5 19 11 W 1012,8 0,0
14.08.2018 05:00:00 28,2 11,3 12 6 21 11 W 1012,9 0,0
14.08.2018 04:00:00 28,2 10,9 12 7 18 10 W 1013,0 0,0
14.08.2018 03:00:00 28,9 11,4 8 4 16 9 WNW 1012,7 0,0
14.08.2018 02:00:00 28,8 12,6 8 4 13 7 WNW 1012,8 -
14.08.2018 01:00:00 28,7 13,0 5 3 11 6 NW 1012,7 0,0
14.08.2018 00:00:00 28,1 16,4 7 4 11 6 W 1012,4 0,0
13.08.2018 23:00:00 27,9 19,7 4 2 6 4 W 1011,9 0,0
13.08.2018 22:00:00 29,0 19,3 2 1 7 4 SSE 1011,4 0,0
13.08.2018 21:00:00 30,1 19,5 4 2 14 7 ESE 1010,8 0,0
13.08.2018 20:00:00 30,4 19,4 9 5 16 9 SE 1011,0 -
13.08.2018 19:00:00 29,5 20,7 9 5 18 10 E 1011,6 0,0
13.08.2018 18:00:00 28,4 21,7 11 6 25 13 E 1012,3 0,0
13.08.2018 17:00:00 27,6 20,9 15 8 22 12 SE 1013,0 0,0
13.08.2018 16:00:00 27,8 21,8 14 8 23 12 E 1013,3 0,0
13.08.2018 15:00:00 26,0 22,1 14 8 23 12 ESE 1014,4 0,0
13.08.2018 14:00:00 25,2 22,3 16 9 23 13 SE 1015,1 -
13.08.2018 13:00:00 27,2 22,6 12 7 19 10 SE 1014,8 0,0
13.08.2018 12:00:00 27,1 22,5 8 4 14 8 ESE 1014,9 0,0
13.08.2018 11:00:00 25,8 23,1 6 4 14 8 SE 1014,9 0,0
13.08.2018 10:00:00 23,8 22,9 9 5 14 8 E 1014,7 0,0
13.08.2018 09:00:00 23,6 22,6 9 5 13 7 SE 1014,3 0,0
13.08.2018 08:00:00 23,5 22,3 0 0 9 5 N 1013,6 -
13.08.2018 07:00:00 23,6 22,4 1 1 10 5 W 1013,4 0,0
13.08.2018 06:00:00 24,2 23,2 7 4 11 6 WNW 1013,4 0,0
13.08.2018 05:00:00 24,3 23,3 6 4 10 5 WNW 1013,5 0,0
13.08.2018 04:00:00 24,4 23,4 5 3 9 5 WNW 1014,0 0,0
13.08.2018 03:00:00 24,7 23,5 1 0 9 5 SSE 1014,4 0,0
13.08.2018 02:00:00 25,1 23,9 5 3 13 7 ESE 1014,8 -
13.08.2018 01:00:00 25,2 24,0 8 5 13 7 E 1014,9 0,0
13.08.2018 00:00:00 25,4 23,8 8 5 13 7 SE 1015,0 0,0
12.08.2018 23:00:00 25,8 23,7 8 4 14 7 ESE 1014,6 0,0
12.08.2018 22:00:00 27,0 23,3 8 5 13 7 SSE 1013,7 0,0
12.08.2018 21:00:00 28,1 22,8 7 4 16 9 SE 1013,4 0,0
12.08.2018 20:00:00 28,8 22,8 12 7 20 11 SE 1014,1 -
12.08.2018 19:00:00 29,3 22,5 14 7 20 11 SE 1014,5 0,0
12.08.2018 18:00:00 30,8 22,7 13 7 24 13 SSE 1014,9 0,0
12.08.2018 17:00:00 30,6 21,7 15 8 25 13 SSE 1015,5 0,0
12.08.2018 16:00:00 31,1 21,3 11 6 21 11 SSE 1016,0 0,0
12.08.2018 15:00:00 31,4 21,6 11 6 24 13 SSE 1016,4 0,0
12.08.2018 14:00:00 31,0 22,0 13 7 24 13 SSE 1017,2 -
12.08.2018 13:00:00 30,5 22,1 14 8 24 13 SSE 1017,2 0,0
12.08.2018 12:00:00 29,8 22,3 13 7 - - SSE 1017,0 -
12.08.2018 11:00:00 28,8 22,3 4 2 15 8 SSE 1016,6 0,0
12.08.2018 10:00:00 27,2 22,6 4 2 9 5 W 1016,5 0,0
12.08.2018 09:00:00 24,9 22,4 5 3 11 6 WSW 1016,6 0,0
12.08.2018 08:00:00 24,3 22,0 6 4 9 5 W 1016,1 -
12.08.2018 07:00:00 25,0 22,5 4 2 8 4 WNW 1016,0 0,0
12.08.2018 06:00:00 25,7 23,4 4 2 9 5 NW 1016,0 0,0
12.08.2018 05:00:00 26,1 24,0 4 2 8 4 WNW 1016,5 0,0
12.08.2018 04:00:00 26,0 23,9 4 2 11 6 SE 1017,3 0,0
12.08.2018 03:00:00 25,8 23,7 10 5 19 11 SE 1017,9 0,0
12.08.2018 02:00:00 26,0 23,7 13 7 21 11 SE 1018,6 -
12.08.2018 01:00:00 26,4 22,9 11 6 17 9 ESE 1018,6 0,0
12.08.2018 00:00:00 26,8 22,2 6 3 10 5 SSE 1018,1 0,0
11.08.2018 23:00:00 27,1 22,1 3 2 8 5 SSW 1017,5 0,0
11.08.2018 22:00:00 27,3 22,0 5 3 17 9 ESE 1017,1 0,0
11.08.2018 21:00:00 28,0 22,0 9 5 19 11 SE 1017,0 0,0
11.08.2018 20:00:00 28,6 22,1 9 5 21 12 ESE 1017,0 -
11.08.2018 19:00:00 29,6 22,1 9 5 21 12 SE 1017,4 0,0
11.08.2018 18:00:00 29,8 21,7 12 7 24 13 SE 1017,7 0,0
11.08.2018 17:00:00 31,3 22,0 12 6 27 15 SSE 1017,9 0,0
11.08.2018 16:00:00 31,1 21,0 13 7 31 17 SE 1018,4 0,0
11.08.2018 15:00:00 32,3 21,5 13 7 23 12 SSE 1018,3 0,0
11.08.2018 14:00:00 31,2 21,4 13 7 24 13 SSE 1019,0 -
11.08.2018 13:00:00 30,5 22,1 14 7 27 14 SE 1019,6 0,0
11.08.2018 12:00:00 30,3 21,4 8 5 20 11 SE 1019,8 0,0
11.08.2018 11:00:00 29,0 23,0 2 1 9 5 SSW 1019,7 0,0
11.08.2018 10:00:00 27,5 23,1 2 1 7 4 W 1019,7 0,0
11.08.2018 09:00:00 26,0 22,7 3 1 7 4 NNW 1019,4 0,0
11.08.2018 08:00:00 25,3 22,0 1 1 5 3 WNW 1019,2 -
11.08.2018 07:00:00 25,2 21,9 3 2 6 3 WSW 1018,8 0,0
11.08.2018 06:00:00 25,6 22,3 2 1 9 5 NNW 1018,7 0,0
11.08.2018 05:00:00 25,8 22,5 3 2 10 5 NW 1019,0 0,0
11.08.2018 04:00:00 25,7 22,6 3 2 8 5 NW 1019,4 0,0
11.08.2018 03:00:00 26,0 22,9 5 3 10 6 W 1019,9 0,0
11.08.2018 02:00:00 26,0 22,7 6 3 18 10 SE 1020,5 -
11.08.2018 01:00:00 26,3 21,1 8 4 13 7 ESE 1020,7 0,0
11.08.2018 00:00:00 26,6 20,7 8 5 16 8 ESE 1020,4 0,0
10.08.2018 23:00:00 27,2 19,3 6 3 13 7 ESE 1019,7 0,0
10.08.2018 22:00:00 27,3 18,6 8 4 16 9 ESE 1018,5 0,0
10.08.2018 21:00:00 27,9 18,3 9 5 18 10 ESE 1018,1 0,0
10.08.2018 20:00:00 28,5 20,5 13 7 20 11 SE 1017,6 -
10.08.2018 19:00:00 29,9 20,7 10 6 23 12 S 1017,5 0,0
10.08.2018 18:00:00 28,6 22,1 16 8 27 15 SE 1018,0 0,0
10.08.2018 17:00:00 28,4 23,1 16 9 31 17 ESE 1018,5 0,0
10.08.2018 16:00:00 28,1 22,8 22 12 39 21 SE 1019,0 0,0
10.08.2018 15:00:00 27,4 22,8 21 11 36 19 ESE 1019,2 0,0
10.08.2018 14:00:00 26,8 22,4 18 10 32 18 ESE 1019,2 -
10.08.2018 13:00:00 27,7 22,6 19 10 37 20 ESE 1018,7 0,0
10.08.2018 12:00:00 27,9 20,7 24 13 37 20 SE 1018,2 0,0
10.08.2018 11:00:00 27,2 18,5 16 9 27 14 ESE 1017,7 0,0
10.08.2018 10:00:00 27,6 13,9 6 4 9 5 WSW 1016,5 0,0
10.08.2018 09:00:00 24,8 12,7 5 3 9 5 WNW 1016,4 0,0
10.08.2018 08:00:00 23,7 12,3 5 3 8 4 WNW 1016,3 -
10.08.2018 07:00:00 24,3 13,3 5 3 9 5 ENE 1016,0 0,0
10.08.2018 06:00:00 25,5 12,0 3 2 13 7 N 1015,7 0,0
10.08.2018 05:00:00 26,6 12,2 9 5 16 9 WNW 1015,1 0,0
10.08.2018 04:00:00 27,1 12,3 8 5 14 8 WNW 1015,0 0,0
10.08.2018 03:00:00 27,4 11,8 5 3 13 7 NW 1015,2 0,0
10.08.2018 02:00:00 28,0 12,0 8 4 14 8 W 1014,9 -
10.08.2018 01:00:00 27,5 11,9 4 2 10 5 W 1014,8 0,0
10.08.2018 00:00:00 28,0 14,2 6 4 12 6 W 1014,6 0,0
09.08.2018 23:00:00 27,3 16,9 5 3 11 6 W 1014,0 0,0
09.08.2018 22:00:00 29,5 15,6 3 2 16 8 SSE 1013,2 0,0
09.08.2018 21:00:00 33,8 12,7 4 2 17 9 NW 1012,3 0,0
09.08.2018 20:00:00 32,1 16,0 5 3 18 10 E 1012,1 -
09.08.2018 19:00:00 33,7 15,7 9 5 17 9 E 1012,4 0,0
09.08.2018 18:00:00 34,9 13,7 8 5 21 11 E 1012,5 0,0
09.08.2018 17:00:00 35,1 12,7 8 4 22 12 SE 1013,0 0,0
09.08.2018 16:00:00 35,5 13,1 13 7 25 13 S 1013,4 0,0
09.08.2018 15:00:00 33,9 13,4 13 7 22 12 E 1013,7 0,0
09.08.2018 14:00:00 32,7 14,8 13 7 22 12 E 1013,8 -
09.08.2018 13:00:00 33,6 11,4 8 5 21 11 WSW 1014,0 0,0
09.08.2018 12:00:00 31,6 12,8 12 6 26 14 W 1014,1 0,0
09.08.2018 11:00:00 28,6 13,7 11 6 21 11 W 1014,1 0,0
09.08.2018 10:00:00 25,9 15,6 9 5 21 12 W 1014,3 0,0
09.08.2018 09:00:00 23,7 18,2 9 5 16 9 WNW 1014,0 0,0
09.08.2018 08:00:00 23,3 20,8 5 3 14 8 NW 1013,9 -
09.08.2018 07:00:00 23,3 21,2 5 3 9 5 W 1013,4 0,0
09.08.2018 06:00:00 23,9 22,3 4 2 9 5 WNW 1013,2 0,0
09.08.2018 05:00:00 24,5 23,3 3 2 9 5 NW 1013,3 0,0
09.08.2018 04:00:00 24,7 23,5 1 1 6 3 W 1013,4 0,0
09.08.2018 03:00:00 24,9 23,7 5 3 7 4 SSW 1013,8 0,0
09.08.2018 02:00:00 24,9 23,7 4 2 11 6 SE 1014,3 -
09.08.2018 01:00:00 25,1 23,5 6 4 14 8 SE 1014,6 0,0

tt = Température de l'air
td = dewpoint
ff = Vitesse du vent
fx = gusts
dd = Direction du vent
ppp = reduced air pressure
rr = Quantités de précipitations

stations d'obs. à proximité